createdAt,value
2023-04-15T00:03:02.707Z,1.95
2023-04-15T00:08:18.810Z,2.20
2023-04-15T00:13:34.962Z,2.17
2023-04-15T00:18:50.897Z,1.90
2023-04-15T00:24:06.753Z,2.10
2023-04-15T00:29:22.727Z,2.38
2023-04-15T00:34:38.638Z,2.20
2023-04-15T00:39:54.699Z,1.80
2023-04-15T00:45:11.188Z,2.08
2023-04-15T00:50:27.066Z,2.15
2023-04-15T00:55:43.220Z,1.95
2023-04-15T01:01:00.183Z,2.50
2023-04-15T01:06:16.169Z,2.33
2023-04-15T01:11:34.512Z,1.92
2023-04-15T01:16:51.133Z,1.98
2023-04-15T01:22:07.250Z,1.83
2023-04-15T01:27:23.417Z,2.92
2023-04-15T01:32:39.305Z,2.40
2023-04-15T01:38:05.290Z,2.55
2023-04-15T01:43:21.218Z,2.22
2023-04-15T01:48:37.514Z,2.03
2023-04-15T01:53:53.832Z,2.28
2023-04-15T01:59:10.046Z,2.17
2023-04-15T02:04:25.618Z,1.67
2023-04-15T02:09:41.618Z,1.92
2023-04-15T02:14:57.621Z,2.13
2023-04-15T02:20:13.142Z,2.20
2023-04-15T02:25:28.844Z,1.20
2023-04-15T02:30:49.203Z,1.10
2023-04-15T02:36:05.357Z,1.23
2023-04-15T02:41:23.103Z,0.80
2023-04-15T02:46:39.281Z,1.10
2023-04-15T02:51:55.742Z,1.05
2023-04-15T02:57:11.961Z,0.90
2023-04-15T03:02:27.647Z,0.77
2023-04-15T03:07:43.846Z,1.10
2023-04-15T03:12:59.440Z,0.75
2023-04-15T03:18:15.183Z,0.88
2023-04-15T03:23:34.084Z,0.73
2023-04-15T03:28:49.892Z,1.02
2023-04-15T03:34:05.291Z,1.00
2023-04-15T03:39:20.722Z,1.10
2023-04-15T03:44:37.362Z,0.85
2023-04-15T03:49:53.189Z,1.20
2023-04-15T03:55:10.018Z,0.75
2023-04-15T04:00:25.992Z,1.00
2023-04-15T04:05:41.974Z,1.10
2023-04-15T04:10:58.514Z,1.20
2023-04-15T04:16:14.181Z,0.90
2023-04-15T04:21:30.249Z,1.25
2023-04-15T04:26:49.134Z,1.02
2023-04-15T04:32:04.961Z,1.00
2023-04-15T04:37:20.931Z,1.02
2023-04-15T04:42:38.664Z,0.93
2023-04-15T04:47:56.435Z,1.13
2023-04-15T04:53:12.266Z,0.90
2023-04-15T04:58:28.211Z,0.80
2023-04-15T05:03:44.772Z,0.80
2023-04-15T05:09:01.467Z,1.08
2023-04-15T05:14:17.707Z,1.10
2023-04-15T05:19:33.648Z,1.00
2023-04-15T05:24:49.531Z,1.25
2023-04-15T05:30:05.813Z,1.50
2023-04-15T05:35:21.868Z,1.02
2023-04-15T05:40:38.145Z,1.00
2023-04-15T05:45:54.242Z,1.33
2023-04-15T05:51:10.123Z,0.88
2023-04-15T05:56:27.459Z,1.17
2023-04-15T06:01:43.443Z,1.10
2023-04-15T06:06:58.839Z,1.75
2023-04-15T06:12:14.873Z,1.40
2023-04-15T06:17:30.861Z,1.35
2023-04-15T06:22:46.678Z,1.08
2023-04-15T06:28:02.631Z,1.20
2023-04-15T06:33:18.570Z,1.45
2023-04-15T06:38:34.410Z,1.40
2023-04-15T06:43:50.358Z,1.20
2023-04-15T06:49:05.774Z,1.55
2023-04-15T06:54:22.035Z,1.10
2023-04-15T06:59:37.719Z,1.00
2023-04-15T07:04:53.573Z,1.17
2023-04-15T07:10:09.708Z,1.15
2023-04-15T07:15:25.557Z,1.30
2023-04-15T07:20:43.761Z,1.27
2023-04-15T07:26:00.101Z,1.45
2023-04-15T07:31:17.059Z,1.10
2023-04-15T07:36:32.785Z,1.52
2023-04-15T07:41:49.705Z,1.00
2023-04-15T07:47:05.621Z,1.20
2023-04-15T07:52:21.732Z,1.27
2023-04-15T07:57:38.105Z,1.17
2023-04-15T08:02:54.368Z,0.82
2023-04-15T08:08:10.170Z,1.48
2023-04-15T08:13:26.634Z,1.55
2023-04-15T08:18:42.421Z,2.05
2023-04-15T08:23:58.493Z,2.30
2023-04-15T08:29:14.523Z,1.52
2023-04-15T08:34:30.379Z,1.90
2023-04-15T08:39:46.457Z,1.50
2023-04-15T08:45:04.845Z,1.65
2023-04-15T08:50:22.571Z,1.52
2023-04-15T08:55:46.167Z,1.60
2023-04-15T09:01:02.119Z,1.35
2023-04-15T09:06:18.488Z,1.30
2023-04-15T09:11:35.237Z,1.48
2023-04-15T09:17:05.255Z,1.15
2023-04-15T09:22:22.443Z,1.10
2023-04-15T09:27:38.594Z,1.65
2023-04-15T09:32:55.884Z,1.00
2023-04-15T09:38:13.083Z,1.73
2023-04-15T09:43:40.008Z,1.30
2023-04-15T09:49:09.403Z,1.33
2023-04-15T09:54:25.224Z,0.98
2023-04-15T09:59:41.622Z,1.00
2023-04-15T10:04:58.523Z,1.15
2023-04-15T10:10:15.508Z,1.45
2023-04-15T10:15:33.196Z,1.20
2023-04-15T10:20:49.982Z,1.38
2023-04-15T10:26:07.301Z,2.40
2023-04-15T10:31:24.076Z,1.10
2023-04-15T10:36:39.716Z,1.33
2023-04-15T10:42:08.158Z,1.33
2023-04-15T10:47:24.300Z,1.48
2023-04-15T10:52:43.168Z,1.30
2023-04-15T10:58:03.748Z,1.08
2023-04-15T11:03:41.898Z,1.08
2023-04-15T11:09:02.709Z,1.20
2023-04-15T11:14:18.332Z,1.63
2023-04-15T11:19:39.142Z,1.10
2023-04-15T11:24:55.007Z,1.20
2023-04-15T11:30:26.146Z,1.20
2023-04-15T11:35:44.831Z,0.98
2023-04-15T11:41:00.973Z,0.77
2023-04-15T11:46:18.048Z,0.85
2023-04-15T11:51:35.514Z,0.80
2023-04-15T11:56:53.858Z,0.80
2023-04-15T12:02:14.380Z,0.70
2023-04-15T12:12:49.952Z,0.88
2023-04-15T12:18:05.992Z,0.57
2023-04-15T12:23:22.379Z,0.60
2023-04-15T12:28:42.540Z,0.60
2023-04-15T12:33:59.545Z,0.73
2023-04-15T12:39:15.497Z,0.40
2023-04-15T12:44:31.190Z,0.88
2023-04-15T12:49:47.443Z,0.65
2023-04-15T12:55:03.329Z,0.80
2023-04-15T13:00:18.984Z,0.70
2023-04-15T13:05:37.186Z,0.73
2023-04-15T13:10:52.989Z,0.63
2023-04-15T13:16:10.187Z,0.50
2023-04-15T13:21:25.824Z,0.70
2023-04-15T13:26:42.168Z,0.60
2023-04-15T13:31:58.695Z,0.70
2023-04-15T13:37:14.442Z,0.60
2023-04-15T13:42:30.990Z,0.50
2023-04-15T13:47:46.857Z,0.90
2023-04-15T13:53:03.296Z,0.60
2023-04-15T13:58:18.712Z,0.60
2023-04-15T14:03:38.306Z,0.50
2023-04-15T14:08:54.941Z,0.60
2023-04-15T14:14:10.769Z,0.70
2023-04-15T14:19:26.960Z,0.68
2023-04-15T14:24:42.668Z,0.50
2023-04-15T14:29:59.148Z,0.77
2023-04-15T14:35:15.169Z,0.80
2023-04-15T14:40:31.177Z,0.60
2023-04-15T14:45:46.777Z,0.57
2023-04-15T14:51:02.869Z,0.65
2023-04-15T14:56:19.263Z,0.70
2023-04-15T15:01:35.423Z,0.60
2023-04-15T15:06:51.513Z,0.57
2023-04-15T15:12:07.384Z,0.70
2023-04-15T15:17:23.413Z,0.50
2023-04-15T15:22:39.233Z,0.80
2023-04-15T15:27:55.267Z,0.50
2023-04-15T15:33:11.109Z,0.57
2023-04-15T15:38:26.589Z,0.60
2023-04-15T15:43:42.425Z,0.50
2023-04-15T15:48:58.912Z,0.52
2023-04-15T15:54:14.512Z,0.50
2023-04-15T15:59:30.799Z,0.50
2023-04-15T16:04:47.377Z,0.50
2023-04-15T16:10:03.521Z,0.60
2023-04-15T16:15:19.556Z,0.50
2023-04-15T16:20:35.482Z,0.68
2023-04-15T16:25:51.949Z,0.90
2023-04-15T16:31:07.740Z,0.80
2023-04-15T16:36:23.789Z,0.50
2023-04-15T16:41:39.840Z,0.90
2023-04-15T16:46:55.970Z,0.80
2023-04-15T16:52:11.753Z,0.65
2023-04-15T16:58:00.791Z,1.05
2023-04-15T17:03:03.825Z,0.80
2023-04-15T17:08:20.131Z,0.63
2023-04-15T17:13:35.680Z,0.93
2023-04-15T17:18:51.708Z,1.05
2023-04-15T17:24:07.564Z,1.27
2023-04-15T17:29:24.714Z,1.42
2023-04-15T17:34:49.792Z,1.48
2023-04-15T17:40:09.037Z,1.30
2023-04-15T17:45:24.824Z,1.75
2023-04-15T17:50:40.919Z,2.30
2023-04-15T17:55:58.531Z,1.20
2023-04-15T18:01:14.226Z,1.73
2023-04-15T18:06:30.088Z,1.58
2023-04-15T18:11:47.599Z,2.30
2023-04-15T18:17:03.532Z,2.60
2023-04-15T18:22:19.657Z,2.70
2023-04-15T18:27:36.321Z,3.30
2023-04-15T18:32:52.134Z,4.05
2023-04-15T18:38:09.235Z,4.43
2023-04-15T18:43:25.473Z,6.10
2023-04-15T18:48:41.581Z,5.22
2023-04-15T18:53:57.333Z,4.57
2023-04-15T18:59:28.816Z,5.20
2023-04-15T19:04:46.568Z,4.43
2023-04-15T19:10:04.398Z,4.22
2023-04-15T19:15:20.095Z,4.78
2023-04-15T19:20:39.898Z,6.05
2023-04-15T19:25:57.453Z,5.03
2023-04-15T19:31:13.038Z,5.25
2023-04-15T19:36:28.997Z,3.90
2023-04-15T19:41:45.390Z,4.22
2023-04-15T19:47:01.323Z,3.53
2023-04-15T19:52:17.319Z,3.67
2023-04-15T19:57:33.163Z,2.80
2023-04-15T20:02:49.510Z,2.70
2023-04-15T20:08:05.750Z,3.03
2023-04-15T20:13:21.760Z,3.58
2023-04-15T20:18:37.724Z,3.50
2023-04-15T20:23:53.639Z,4.22
2023-04-15T20:29:09.612Z,3.63
2023-04-15T20:34:26.166Z,2.97
2023-04-15T20:39:42.327Z,2.92
2023-04-15T20:44:57.953Z,3.28
2023-04-15T20:50:13.425Z,3.10
2023-04-15T20:55:30.761Z,2.88
2023-04-15T21:00:47.335Z,2.75
2023-04-15T21:06:03.146Z,5.18
2023-04-15T21:11:38.825Z,7.10
2023-04-15T21:16:55.184Z,6.40
2023-04-15T21:22:11.094Z,5.25
2023-04-15T21:27:27.231Z,3.85
2023-04-15T21:32:43.289Z,4.72
2023-04-15T21:37:59.156Z,3.42
2023-04-15T21:43:14.907Z,3.53
2023-04-15T21:48:31.962Z,3.15
2023-04-15T21:53:49.011Z,4.15
2023-04-15T21:59:05.415Z,3.92
2023-04-15T22:04:21.502Z,3.83
2023-04-15T22:09:37.153Z,3.13
2023-04-15T22:14:52.952Z,3.38
2023-04-15T22:20:09.618Z,2.90
2023-04-15T22:25:25.210Z,3.33
2023-04-15T22:30:42.326Z,3.13
2023-04-15T22:35:58.134Z,3.08
2023-04-15T22:41:14.215Z,3.05
2023-04-15T22:46:30.235Z,3.60
2023-04-15T22:51:46.009Z,3.35
2023-04-15T22:57:02.262Z,4.13
2023-04-15T23:02:18.123Z,3.50
2023-04-15T23:07:34.277Z,2.92
2023-04-15T23:12:50.270Z,2.75
2023-04-15T23:18:06.260Z,3.75
2023-04-15T23:23:22.953Z,3.70
2023-04-15T23:28:38.801Z,4.03
2023-04-15T23:33:54.718Z,3.22
2023-04-15T23:39:10.812Z,3.78
2023-04-15T23:44:27.501Z,4.03
2023-04-15T23:49:43.235Z,3.53
2023-04-15T23:54:59.133Z,2.85
